Fairfield, PA (17320)

12:46 PM EDT on June 30, 2015 (GMT -0400)
Liberty Mountain Resort Summit | | Change Station
CLOSE
Current Station
Personal Weather Station
Location: Fairfield, PA
Elevation: 771 ft
Nearby Weather Stations

Elev 771 ft 39.76 °N, 77.37 °W | Updated 4 seconds ago

Mostly Cloudy
Mostly Cloudy
76.0 °F
Feels Like 74 °F
N
0.0
Wind Variable Wind from SE
Gusts 19.0 mph

Today
High -- | Low -- °F
--% Chance of Precip.
Yesterday
High -- | Low -- °F
Precip. -- in
5:44 AM 8:41 PM
Waxing Gibbous, 98% visible
Pressure 29.86 in
Visibility 10.0 miles
Clouds Mostly Cloudy 7000 ft
Heat Index 74 °F
Dew Point Not available.
Humidity Not available.
Rainfall in
Snow Depth Not available.
UV 6 out of 12
Pollen 1.50 out of 12
Air Quality Not available.
Flu Activity Sporadic
METAR KRYT 301553Z AUTO 00000KT 10SM BKN070 24/19 A2989 RMK AO2 SLP112 T02440189 $

More Conditions Fewer Conditions

Pressure 29.86 in
Visibility 10.0 miles
Clouds Mostly Cloudy 7000 ft
Heat Index 74 °F
Dew Point Not available.
Humidity Not available.
Rainfall in
Snow Depth Not available.
UV 6 out of 12
Pollen 1.50 out of 12
Air Quality Not available.
Flu Activity Sporadic
METAR KRYT 301553Z AUTO 00000KT 10SM BKN070 24/19 A2989 RMK AO2 SLP112 T02440189 $

More Conditions Fewer Conditions

10-Day Weather Forecast

×

Almanac

Astronomy

Jun. 30, 2015 Rise Set
Actual Time
Civil Twilight
Nautical Twilight
Astronomical Twilight
Moon
Length of Visible Light
Length of Day
Tomorrow will be .
, % of the Moon is Illuminated

Today's Extremes

State Highs State Lows

Community

WunderPhotos

Upload Photos

1,834,038 photos uploaded!

WunderBlogs® & News

Nearby

Air Quality

  Air Quality AQ Index Pollutant
Not available.

Snow Depth

Station Depth Elevation

Earthquake Activity

City Distance Mag. Time & Date
Minimum magnitude displayed is 2.5.

Coastal Water Temperatures

Place Temperature

Stations

Nearby Weather Stations

Station Location Temp. Windchill Dew Point Humidity Wind Precip. Elev Updated Type